Belle Fourche, South Dakota
Current Conditions -  °F | °C
As of 4:55 AM on Thursday 27 Nov 2014 (Local Time) from KSPF Reporting Station
Moderate Fog Moderate Fog  
Wind Chill: 18°   Ceiling: 200
Heat Index: 18°   Visibility: 0.5mi
Dew Point: 16°   Wind: 0mph
Humidity: 93%   Direction: NA
Pressure: 30.08"   Gusts: NA
Location:  44.67°N, 103.85°W
Report Text: KSPF 271155Z AUTO 00000KT 1/2SM FZFG BKN002 OVC090 M08/M09 A3008 RMK AO2
Loading
Personal Weather Stations






























Interactive Weather Map New forecast layout! Learn more

10-Day Weather Forecast

Advertisements
Track Severe Weather on mobile